Rachal, Texas
Current Conditions -  °F | °C
As of 10:35 AM on Friday 24 Oct 2014 (Local Time) from KBKS Reporting Station
Clear Clear  
Wind Chill: 24°   Ceiling: Unl
Heat Index: 24°   Visibility: 10mi
Dew Point: 18°   Wind: 3mph
Humidity: 69%   Direction: 20°NNE
Pressure: 30.16"   Gusts: NA
Location:  26.9826°N, 98.212°W
Report Text: KBKS 241535Z AUTO 02003KT 10SM CLR 24/18 A3016 RMK AO1 T02390180
Loading
Personal Weather Stations






























Interactive Weather Map
Tropical Storm Tracking
New forecast layout! Learn more

10-Day Weather Forecast

Advertisements
Track Severe Weather on mobile